Perch River, New York
Current Conditions -  °F | °C
As of 4:56 PM on Sunday 23 Nov 2014 (Local Time) from KART Reporting Station
Clear Clear  
Wind Chill:   Ceiling: Unl
Heat Index:   Visibility: 10mi
Dew Point:   Wind: 6mph
Humidity: 64%   Direction: 150°SSE
Pressure: 29.96"   Gusts: NA
Location:  44.0116°N, 76.0789°W
Report Text: KART 232156Z AUTO 15005KT 10SM CLR 09/03 A2996 RMK AO2 SLP145 T00940028
Loading
Personal Weather Stations






























Interactive Weather Map New forecast layout! Learn more

10-Day Weather Forecast

Advertisements
Track Severe Weather on mobile